Time;durP1;ratioP1;P1;durP2;ratioP2;P2;SDS_P1;SDS_P2;PMS_P1;PMS_P2;Temp;Humidity;BMP_temperature;BMP_pressure;BME280_temperature;BME280_humidity;BME280_pressure;Samples;Min_cycle;Max_cycle;Signal;HPM_P1;HPM_P2
2023/04/29 00:01:07;;;;;;;36.93;23.70;;;9.30;99.90;;;;;;5002233;28;20508;-77
2023/04/29 00:03:33;;;;;;;38.63;24.17;;;9.40;99.90;;;;;;5006514;28;20491;-76
2023/04/29 00:05:59;;;;;;;35.38;23.83;;;9.30;99.90;;;;;;5008419;28;20437;-78
2023/04/29 00:08:25;;;;;;;37.28;24.65;;;9.30;99.90;;;;;;5005348;28;20425;-76
2023/04/29 00:10:51;;;;;;;37.08;24.63;;;9.30;99.90;;;;;;4988117;28;20414;-75
2023/04/29 00:13:17;;;;;;;35.05;22.63;;;9.30;99.90;;;;;;4999730;28;20435;-74
2023/04/29 00:15:43;;;;;;;34.90;23.75;;;9.30;99.90;;;;;;5008038;28;20440;-76
2023/04/29 00:18:09;;;;;;;37.95;24.40;;;9.40;99.90;;;;;;4998811;28;20492;-75
2023/04/29 00:20:36;;;;;;;33.38;22.05;;;9.30;99.90;;;;;;5008868;28;20547;-75
2023/04/29 00:23:02;;;;;;;34.88;23.58;;;9.20;99.90;;;;;;5003006;28;20429;-76
2023/04/29 00:25:28;;;;;;;34.17;22.80;;;9.40;99.90;;;;;;5003312;28;20429;-76
2023/04/29 00:27:54;;;;;;;30.03;22.13;;;9.30;99.90;;;;;;4998535;28;20510;-76
2023/04/29 00:30:19;;;;;;;35.45;22.92;;;9.30;99.90;;;;;;5007498;28;20975;-75
2023/04/29 00:32:45;;;;;;;33.03;22.67;;;9.20;99.90;;;;;;5006228;28;20421;-75
2023/04/29 00:35:11;;;;;;;37.92;23.63;;;9.20;99.90;;;;;;5007225;28;20428;-75
2023/04/29 00:37:36;;;;;;;32.28;22.08;;;9.30;99.90;;;;;;5020526;28;20441;-76
2023/04/29 00:40:03;;;;;;;33.53;22.75;;;9.20;99.90;;;;;;5006741;28;20416;-74
2023/04/29 00:42:32;;;;;;;33.55;20.98;;;9.10;99.90;;;;;;5004045;28;20603;-76
2023/04/29 00:44:58;;;;;;;24.83;21.85;;;9.30;99.90;;;;;;5008874;28;20710;-77
2023/04/29 00:47:23;;;;;;;31.77;22.10;;;9.30;99.90;;;;;;5007508;28;20421;-76
2023/04/29 00:49:49;;;;;;;29.73;21.50;;;9.40;99.90;;;;;;5007834;28;20439;-76
2023/04/29 00:52:16;;;;;;;31.97;22.63;;;9.20;99.90;;;;;;5005309;28;20421;-74
2023/04/29 00:54:42;;;;;;;34.22;22.50;;;9.20;99.90;;;;;;5006612;28;20504;-76
2023/04/29 00:57:08;;;;;;;33.95;23.25;;;9.30;99.90;;;;;;5004301;28;20447;-74
2023/04/29 00:59:35;;;;;;;31.30;22.73;;;9.10;99.90;;;;;;5006658;28;20418;-76
2023/04/29 01:02:02;;;;;;;32.40;21.38;;;9.20;99.90;;;;;;5005344;28;20432;-77
2023/04/29 01:04:29;;;;;;;37.55;22.92;;;9.20;99.90;;;;;;5093844;23;20444;-76
2023/04/29 01:07:06;;;;;;;30.15;22.98;;;9.30;99.90;;;;;;5025047;28;20431;-76
2023/04/29 01:09:54;;;;;;;33.03;21.58;;;9.20;99.90;;;;;;5024591;28;20430;-76
2023/04/29 01:12:40;;;;;;;27.77;20.88;;;9.10;99.90;;;;;;5021640;28;20994;-77
2023/04/29 01:15:26;;;;;;;29.02;21.25;;;9.20;99.90;;;;;;5021577;28;20508;-76
2023/04/29 01:18:02;;;;;;;32.55;23.02;;;9.20;99.90;;;;;;5025056;28;20915;-76
2023/04/29 01:20:29;;;;;;;26.40;21.23;;;9.20;99.90;;;;;;5025715;28;20459;-77
2023/04/29 01:22:55;;;;;;;32.15;22.45;;;9.20;99.90;;;;;;5024038;28;20429;-75
2023/04/29 01:25:21;;;;;;;30.98;21.45;;;9.30;99.90;;;;;;5023481;28;20481;-75
2023/04/29 01:28:24;;;;;;;30.65;22.42;;;9.30;99.90;;;;;;5025810;28;20473;-75
2023/04/29 01:30:59;;;;;;;26.37;20.30;;;9.20;99.90;;;;;;5020539;28;20540;-76
2023/04/29 01:33:58;;;;;;;29.27;22.00;;;9.30;99.90;;;;;;5012109;28;20435;-77
2023/04/29 01:36:41;;;;;;;27.35;21.33;;;9.30;99.90;;;;;;5005006;28;20505;-76
2023/04/29 01:39:30;;;;;;;27.67;20.63;;;9.30;99.90;;;;;;5023720;28;20818;-75
2023/04/29 01:42:30;;;;;;;28.95;20.63;;;9.40;99.90;;;;;;5021407;28;20419;-75
2023/04/29 01:44:59;;;;;;;33.38;20.65;;;9.30;99.90;;;;;;5025444;28;20783;-75
2023/04/29 01:47:27;;;;;;;24.17;19.38;;;9.30;99.90;;;;;;5024314;28;20427;-74
2023/04/29 01:49:52;;;;;;;30.17;21.35;;;9.20;99.90;;;;;;5022938;28;20569;-76
2023/04/29 01:52:18;;;;;;;31.80;22.63;;;9.30;99.90;;;;;;5024744;28;20498;-75
2023/04/29 01:54:44;;;;;;;27.27;21.00;;;9.10;99.90;;;;;;5025372;28;20438;-75
2023/04/29 01:57:10;;;;;;;26.30;20.07;;;9.10;99.90;;;;;;5023978;28;20430;-75
2023/04/29 01:59:36;;;;;;;28.63;20.70;;;9.20;99.90;;;;;;5022047;28;20582;-76
2023/04/29 02:02:01;;;;;;;26.30;21.40;;;9.10;99.90;;;;;;5023045;28;20517;-75
2023/04/29 02:04:27;;;;;;;29.97;22.37;;;9.20;99.90;;;;;;4959300;28;1790981;-75
2023/04/29 02:06:53;;;;;;;29.33;20.60;;;8.90;99.90;;;;;;5025863;28;20781;-76
2023/04/29 02:09:19;;;;;;;28.48;22.08;;;9.10;99.90;;;;;;5024319;28;20418;-76
2023/04/29 02:11:44;;;;;;;27.00;22.15;;;9.10;99.90;;;;;;5027302;28;20506;-76
2023/04/29 02:14:11;;;;;;;27.58;21.65;;;9.00;99.90;;;;;;5027089;28;20426;-76
2023/04/29 02:16:37;;;;;;;28.67;21.50;;;9.10;99.90;;;;;;5029679;28;20450;-76
2023/04/29 02:19:03;;;;;;;32.85;22.25;;;9.10;99.90;;;;;;5027943;28;20515;-75
2023/04/29 02:21:28;;;;;;;25.67;20.05;;;9.10;99.90;;;;;;5025620;28;20435;-76
2023/04/29 02:23:54;;;;;;;30.42;20.85;;;9.00;99.90;;;;;;5030252;28;20430;-75
2023/04/29 02:26:20;;;;;;;31.33;20.50;;;9.00;99.90;;;;;;5023997;28;20423;-77
2023/04/29 02:28:46;;;;;;;29.10;22.02;;;9.10;99.90;;;;;;5025985;28;20740;-76
2023/04/29 02:31:12;;;;;;;30.60;22.45;;;9.00;99.90;;;;;;5028003;28;20434;-76
2023/04/29 02:33:38;;;;;;;28.38;21.35;;;9.20;99.90;;;;;;5026471;28;20426;-76
2023/04/29 02:36:04;;;;;;;30.77;23.17;;;9.20;99.90;;;;;;5028873;28;20826;-75
2023/04/29 02:38:30;;;;;;;33.85;23.48;;;9.10;99.90;;;;;;5026759;28;21009;-76
2023/04/29 02:40:56;;;;;;;32.08;21.27;;;9.00;99.90;;;;;;5026153;28;20427;-76
2023/04/29 02:43:22;;;;;;;31.20;23.45;;;9.20;99.90;;;;;;5026600;28;20795;-76
2023/04/29 02:45:47;;;;;;;34.38;24.02;;;9.20;99.90;;;;;;5027888;28;20481;-76
2023/04/29 02:48:13;;;;;;;39.35;24.38;;;9.20;99.90;;;;;;5010448;28;20449;-77
2023/04/29 02:50:39;;;;;;;34.97;23.70;;;9.20;99.90;;;;;;5029765;28;20473;-77
2023/04/29 02:53:04;;;;;;;35.27;24.57;;;9.10;99.90;;;;;;5027215;28;20427;-76
2023/04/29 02:55:30;;;;;;;31.93;23.93;;;9.10;99.90;;;;;;5027941;28;20817;-77
2023/04/29 02:57:56;;;;;;;34.53;23.77;;;9.20;99.90;;;;;;5028414;28;20874;-78
2023/04/29 03:00:22;;;;;;;33.20;23.97;;;9.20;99.90;;;;;;5025821;28;20954;-75
2023/04/29 03:02:48;;;;;;;34.58;24.95;;;9.00;99.90;;;;;;5027842;28;20501;-77
2023/04/29 03:05:14;;;;;;;32.97;21.48;;;9.00;99.90;;;;;;5025854;28;21506;-76
2023/04/29 03:07:40;;;;;;;29.40;21.95;;;9.00;99.90;;;;;;5026917;28;20422;-77
2023/04/29 03:10:06;;;;;;;32.60;21.38;;;9.10;99.90;;;;;;5027326;28;20445;-75
2023/04/29 03:12:32;;;;;;;36.00;22.42;;;9.00;99.90;;;;;;5028713;28;20918;-76
2023/04/29 03:14:58;;;;;;;30.42;21.42;;;9.00;99.90;;;;;;5023011;28;20429;-79
2023/04/29 03:17:24;;;;;;;29.90;20.20;;;9.00;99.90;;;;;;5027035;28;20445;-77
2023/04/29 03:19:51;;;;;;;28.40;18.98;;;9.10;99.90;;;;;;5030122;28;20407;-77
2023/04/29 03:22:17;;;;;;;26.42;18.88;;;9.00;99.90;;;;;;5027607;28;20446;-76
2023/04/29 03:24:43;;;;;;;24.73;18.37;;;9.00;99.90;;;;;;5025789;28;20427;-76
2023/04/29 03:27:10;;;;;;;27.67;18.08;;;9.00;99.90;;;;;;5027342;28;20443;-76
2023/04/29 03:29:35;;;;;;;25.40;18.63;;;8.90;99.90;;;;;;5027549;28;20422;-75
2023/04/29 03:32:01;;;;;;;23.20;17.40;;;9.00;99.90;;;;;;5023866;28;20508;-77
2023/04/29 03:34:27;;;;;;;20.80;18.05;;;9.00;99.90;;;;;;5026059;28;20429;-77
2023/04/29 03:36:53;;;;;;;26.17;17.75;;;9.00;99.90;;;;;;5027740;28;20994;-75
2023/04/29 03:39:18;;;;;;;26.05;16.95;;;9.00;99.90;;;;;;5028895;28;20415;-75
2023/04/29 03:41:46;;;;;;;26.23;17.95;;;9.10;99.90;;;;;;5025477;28;20430;-76
2023/04/29 03:44:12;;;;;;;25.02;17.42;;;9.00;99.90;;;;;;5025964;28;20427;-75
2023/04/29 03:46:37;;;;;;;26.00;18.73;;;9.10;99.90;;;;;;5025771;28;20493;-73
2023/04/29 03:49:03;;;;;;;29.38;17.35;;;9.00;99.90;;;;;;5028780;28;20506;-74
2023/04/29 03:51:29;;;;;;;26.83;17.37;;;8.90;99.90;;;;;;5029274;28;20516;-76
2023/04/29 03:53:58;;;;;;;26.27;17.50;;;8.90;99.90;;;;;;5028825;28;20501;-74
2023/04/29 03:56:26;;;;;;;22.33;17.45;;;9.00;99.90;;;;;;5022119;28;20788;-73
2023/04/29 03:58:52;;;;;;;30.38;17.35;;;9.10;99.90;;;;;;5028000;28;20430;-74
2023/04/29 04:01:18;;;;;;;24.50;17.27;;;9.00;99.90;;;;;;5026322;28;20426;-75
2023/04/29 04:03:44;;;;;;;26.15;17.70;;;9.00;99.90;;;;;;5028045;28;20546;-75
2023/04/29 04:06:10;;;;;;;22.03;16.47;;;9.10;99.90;;;;;;5025741;28;20419;-74
2023/04/29 04:08:35;;;;;;;23.07;17.33;;;8.80;99.90;;;;;;5025017;28;20757;-76
2023/04/29 04:11:04;;;;;;;22.17;17.43;;;8.90;99.90;;;;;;5026296;28;20430;-76
2023/04/29 04:13:30;;;;;;;25.17;18.33;;;9.00;99.90;;;;;;5026232;28;20514;-75
2023/04/29 04:15:55;;;;;;;22.42;16.17;;;9.00;99.90;;;;;;5019453;28;20514;-76
2023/04/29 04:18:21;;;;;;;24.35;15.88;;;8.90;99.90;;;;;;5023691;28;20423;-75
2023/04/29 04:20:47;;;;;;;25.55;17.27;;;9.00;99.90;;;;;;5028465;28;20794;-75
2023/04/29 04:23:13;;;;;;;20.60;16.10;;;8.90;99.90;;;;;;5023113;28;20418;-74
2023/04/29 04:25:47;;;;;;;23.35;16.13;;;9.00;99.90;;;;;;5027056;28;20466;-76
2023/04/29 04:28:13;;;;;;;25.00;16.55;;;9.00;99.90;;;;;;5034236;28;20518;-75
2023/04/29 04:30:39;;;;;;;21.52;14.68;;;8.90;99.90;;;;;;5027224;28;20572;-76
2023/04/29 04:33:05;;;;;;;26.38;16.20;;;9.00;99.90;;;;;;5026218;28;20423;-77
2023/04/29 04:35:31;;;;;;;22.00;14.52;;;8.90;99.90;;;;;;5025450;28;20439;-76
2023/04/29 04:37:57;;;;;;;21.20;13.88;;;8.90;99.90;;;;;;5025488;28;20759;-75
2023/04/29 04:40:23;;;;;;;18.52;13.73;;;8.90;99.90;;;;;;5024915;28;20477;-76
2023/04/29 04:42:49;;;;;;;23.08;14.52;;;9.00;99.90;;;;;;5017846;28;21020;-75
2023/04/29 04:45:14;;;;;;;19.20;13.00;;;9.00;99.90;;;;;;5028823;28;20403;-75
2023/04/29 04:47:40;;;;;;;19.05;12.40;;;9.00;99.90;;;;;;5025445;28;20950;-75
2023/04/29 04:50:07;;;;;;;19.63;12.20;;;9.00;99.90;;;;;;5027152;28;20415;-76
2023/04/29 04:52:32;;;;;;;18.45;11.93;;;9.00;99.90;;;;;;5027323;28;21189;-75
2023/04/29 04:54:58;;;;;;;14.23;10.65;;;9.00;99.90;;;;;;5026263;28;20453;-76
2023/04/29 04:57:24;;;;;;;15.18;10.57;;;9.10;99.90;;;;;;5026597;28;20960;-77
2023/04/29 04:59:50;;;;;;;14.95;10.38;;;8.90;99.90;;;;;;5027392;28;20419;-76
2023/04/29 05:02:16;;;;;;;14.10;9.98;;;9.00;99.90;;;;;;5025931;28;20423;-76
2023/04/29 05:04:41;;;;;;;17.58;10.90;;;9.10;99.90;;;;;;5024420;28;20430;-76
2023/04/29 05:07:07;;;;;;;18.38;11.43;;;9.00;99.90;;;;;;5025115;28;20455;-75
2023/04/29 05:09:33;;;;;;;16.92;10.73;;;9.10;99.90;;;;;;5026315;28;20501;-75
2023/04/29 05:11:59;;;;;;;20.40;10.77;;;9.10;99.90;;;;;;5026338;28;20497;-77
2023/04/29 05:14:25;;;;;;;18.73;10.23;;;9.00;99.90;;;;;;5027485;28;20837;-76
2023/04/29 05:16:51;;;;;;;16.80;10.00;;;9.00;99.90;;;;;;5008494;28;20431;-75
2023/04/29 05:19:18;;;;;;;19.10;10.85;;;9.10;99.90;;;;;;5025642;28;20416;-75
2023/04/29 05:21:44;;;;;;;16.02;10.95;;;8.90;99.90;;;;;;5026579;28;20485;-76
2023/04/29 05:24:09;;;;;;;15.85;9.95;;;9.00;99.90;;;;;;5020126;28;20423;-76
2023/04/29 05:26:35;;;;;;;15.98;9.57;;;9.10;99.90;;;;;;5023261;28;20926;-75
2023/04/29 05:29:01;;;;;;;14.35;10.15;;;9.10;99.90;;;;;;5028998;28;20483;-75
2023/04/29 05:31:27;;;;;;;17.02;9.70;;;9.20;99.90;;;;;;5027477;28;20510;-76
2023/04/29 05:33:53;;;;;;;15.95;9.75;;;9.00;99.90;;;;;;5022979;28;20884;-77
2023/04/29 05:36:19;;;;;;;15.20;10.73;;;9.10;99.90;;;;;;5025607;28;20521;-77
2023/04/29 05:38:45;;;;;;;17.65;10.40;;;9.10;99.90;;;;;;5022771;28;20417;-75
2023/04/29 05:41:11;;;;;;;18.30;11.25;;;9.20;99.90;;;;;;5023982;28;20449;-77
2023/04/29 05:43:36;;;;;;;17.98;10.57;;;9.20;99.90;;;;;;5030175;28;20502;-76
2023/04/29 05:46:02;;;;;;;21.45;9.98;;;9.10;99.90;;;;;;5028634;28;20427;-75
2023/04/29 05:48:28;;;;;;;18.75;10.10;;;9.00;99.90;;;;;;5034139;28;20421;-77
2023/04/29 05:50:54;;;;;;;17.35;10.23;;;9.10;99.90;;;;;;5045436;28;20510;-78
2023/04/29 05:53:20;;;;;;;17.88;10.95;;;9.00;99.90;;;;;;5039346;28;20470;-76
2023/04/29 05:55:46;;;;;;;17.77;10.10;;;9.10;99.90;;;;;;5022742;28;20982;-76
2023/04/29 05:58:12;;;;;;;15.47;10.20;;;9.00;99.90;;;;;;5027194;28;20518;-78
2023/04/29 06:00:38;;;;;;;16.77;9.43;;;9.00;99.90;;;;;;5027836;28;20415;-75
2023/04/29 06:03:03;;;;;;;16.67;10.50;;;9.10;99.90;;;;;;5026963;28;20467;-78
2023/04/29 06:05:29;;;;;;;17.23;10.45;;;9.00;99.90;;;;;;5028652;28;20831;-75
2023/04/29 06:07:55;;;;;;;13.20;8.80;;;9.10;99.90;;;;;;5029011;28;20407;-75
2023/04/29 06:10:21;;;;;;;14.70;9.02;;;9.20;99.90;;;;;;5040475;28;20462;-75
2023/04/29 06:12:49;;;;;;;14.02;9.98;;;9.30;99.90;;;;;;5028471;28;20506;-78
2023/04/29 06:15:15;;;;;;;14.50;10.30;;;9.50;99.90;;;;;;5021482;28;20523;-76
2023/04/29 06:17:41;;;;;;;13.55;9.52;;;9.60;99.90;;;;;;5008827;28;20493;-77
2023/04/29 06:20:07;;;;;;;14.33;9.10;;;10.00;99.90;;;;;;5026519;28;20423;-77
2023/04/29 06:22:33;;;;;;;17.80;9.60;;;10.20;99.90;;;;;;5028081;28;20468;-76
2023/04/29 06:24:58;;;;;;;16.77;9.55;;;10.30;99.90;;;;;;5028674;28;20429;-79
2023/04/29 06:27:24;;;;;;;13.50;9.10;;;10.20;99.90;;;;;;5027456;28;20427;-75
2023/04/29 06:29:50;;;;;;;20.92;9.18;;;10.00;99.90;;;;;;5026629;28;20430;-76
2023/04/29 06:32:15;;;;;;;16.20;9.27;;;10.10;99.90;;;;;;5026741;28;20485;-75
2023/04/29 06:34:41;;;;;;;17.67;9.30;;;10.20;99.90;;;;;;5024512;28;20923;-76
2023/04/29 06:37:06;;;;;;;11.60;8.40;;;10.40;99.90;;;;;;5036691;28;20437;-76
2023/04/29 06:39:32;;;;;;;15.37;8.67;;;10.40;99.90;;;;;;5033791;28;20449;-74
2023/04/29 06:41:58;;;;;;;14.13;8.38;;;10.50;99.90;;;;;;5026703;28;20427;-76
2023/04/29 06:44:23;;;;;;;13.10;7.88;;;10.80;99.90;;;;;;5024051;28;20424;-76
2023/04/29 06:46:49;;;;;;;11.98;7.60;;;10.70;99.90;;;;;;5026989;28;20899;-75
2023/04/29 06:49:15;;;;;;;13.15;8.85;;;11.20;99.90;;;;;;5031827;28;20777;-75
2023/04/29 06:51:41;;;;;;;15.77;8.80;;;11.90;99.90;;;;;;5027378;28;20422;-76
2023/04/29 06:54:07;;;;;;;15.32;8.48;;;12.20;99.90;;;;;;5011619;28;20946;-76
2023/04/29 06:56:33;;;;;;;10.60;7.73;;;12.00;99.90;;;;;;5042987;28;20512;-75
2023/04/29 06:58:58;;;;;;;12.07;7.73;;;12.20;99.90;;;;;;5023759;28;20470;-76
2023/04/29 07:01:24;;;;;;;13.52;7.03;;;12.80;99.90;;;;;;5046419;28;20413;-75
2023/04/29 07:03:50;;;;;;;11.10;7.15;;;13.60;99.90;;;;;;5049906;28;20412;-78
2023/04/29 07:06:15;;;;;;;10.70;6.82;;;14.00;99.90;;;;;;5033757;28;20443;-76
2023/04/29 07:08:41;;;;;;;11.60;7.00;;;14.30;99.90;;;;;;5028870;28;20419;-76
2023/04/29 07:11:07;;;;;;;11.90;7.57;;;14.90;99.90;;;;;;5028623;28;20882;-77
2023/04/29 07:13:32;;;;;;;12.80;7.10;;;15.10;99.90;;;;;;5029108;28;20441;-77
2023/04/29 07:15:58;;;;;;;12.70;7.73;;;14.70;99.90;;;;;;5041094;28;20483;-78
2023/04/29 07:18:23;;;;;;;12.77;7.53;;;15.10;99.90;;;;;;5031860;28;20469;-76
2023/04/29 07:20:51;;;;;;;9.80;7.40;;;15.10;99.90;;;;;;5032480;28;20433;-76
2023/04/29 07:23:17;;;;;;;11.03;7.00;;;13.80;99.90;;;;;;5028204;28;20847;-77
2023/04/29 07:25:42;;;;;;;14.80;7.70;;;12.60;99.90;;;;;;5045087;28;20428;-75
2023/04/29 07:28:08;;;;;;;12.60;8.00;;;12.70;99.90;;;;;;5039499;28;20917;-76
2023/04/29 07:30:34;;;;;;;13.07;7.43;;;12.20;99.90;;;;;;5027625;28;20467;-76
2023/04/29 07:33:00;;;;;;;12.20;7.40;;;12.40;99.90;;;;;;5023599;28;20424;-75
2023/04/29 07:35:26;;;;;;;14.38;7.63;;;12.30;99.90;;;;;;5025734;28;20427;-75
2023/04/29 07:37:52;;;;;;;12.10;7.10;;;12.30;99.90;;;;;;5034413;28;20952;-75
2023/04/29 07:40:17;;;;;;;12.00;6.80;;;12.10;99.90;;;;;;5047877;28;20409;-74
2023/04/29 07:42:43;;;;;;;11.88;6.65;;;12.10;99.90;;;;;;5038105;28;20443;-75
2023/04/29 07:45:09;;;;;;;16.10;7.25;;;12.40;99.90;;;;;;5026461;28;20423;-76
2023/04/29 07:47:35;;;;;;;13.70;7.28;;;12.10;99.90;;;;;;5029012;28;20930;-75
2023/04/29 07:50:02;;;;;;;11.87;6.97;;;12.20;99.90;;;;;;5029170;28;20429;-76
2023/04/29 07:52:27;;;;;;;14.63;6.60;;;12.20;99.90;;;;;;5026053;28;20824;-76
2023/04/29 07:54:56;;;;;;;11.30;6.18;;;12.20;99.90;;;;;;5036083;28;20501;-75
2023/04/29 07:57:21;;;;;;;11.40;6.47;;;12.30;99.90;;;;;;5048776;28;20460;-75
2023/04/29 07:59:51;;;;;;;14.13;7.43;;;12.40;99.90;;;;;;5031434;28;20984;-77
2023/04/29 08:02:17;;;;;;;12.00;6.60;;;12.40;99.90;;;;;;5027390;28;20985;-73
2023/04/29 08:04:43;;;;;;;14.10;6.77;;;12.30;99.90;;;;;;5025541;28;20590;-75
2023/04/29 08:07:09;;;;;;;11.50;6.43;;;12.30;99.90;;;;;;5028730;28;20418;-76
2023/04/29 08:09:35;;;;;;;11.48;6.38;;;12.20;99.90;;;;;;5030217;28;20418;-76
2023/04/29 08:12:01;;;;;;;14.15;7.00;;;12.30;99.90;;;;;;5024631;28;21033;-75
2023/04/29 08:14:26;;;;;;;9.38;6.18;;;11.90;99.90;;;;;;5027373;28;20516;-76
2023/04/29 08:16:53;;;;;;;13.88;6.35;;;12.40;99.90;;;;;;5025688;28;20446;-77
2023/04/29 08:19:20;;;;;;;11.95;5.82;;;12.40;99.90;;;;;;5027322;28;20501;-76
2023/04/29 08:21:46;;;;;;;10.77;6.13;;;12.40;99.90;;;;;;5027503;28;20466;-76
2023/04/29 08:24:12;;;;;;;13.20;6.25;;;12.40;99.90;;;;;;5027053;28;20411;-76
2023/04/29 08:26:40;;;;;;;10.85;5.95;;;12.50;99.90;;;;;;5028179;28;20911;-76
2023/04/29 08:29:06;;;;;;;10.27;6.40;;;12.40;99.90;;;;;;5027230;28;20427;-77
2023/04/29 08:31:32;;;;;;;11.63;6.17;;;12.30;99.90;;;;;;5026461;28;20399;-76
2023/04/29 08:33:58;;;;;;;11.38;5.85;;;12.20;99.90;;;;;;5042782;28;20924;-76
2023/04/29 08:36:25;;;;;;;11.13;5.38;;;12.40;99.90;;;;;;5039269;28;20438;-75
2023/04/29 08:38:52;;;;;;;8.35;4.75;;;12.50;99.90;;;;;;5031969;28;20971;-78
2023/04/29 08:41:17;;;;;;;7.72;4.68;;;12.70;99.90;;;;;;5047588;28;21344;-76
2023/04/29 08:43:43;;;;;;;9.25;6.05;;;12.50;99.90;;;;;;5046149;28;20467;-76
2023/04/29 08:46:09;;;;;;;8.17;4.70;;;12.80;99.90;;;;;;5035567;28;20417;-76
2023/04/29 08:48:36;;;;;;;11.18;5.32;;;12.70;99.90;;;;;;5047326;28;20402;-75
2023/04/29 08:51:03;;;;;;;10.33;5.87;;;12.70;99.90;;;;;;5047293;28;20417;-77
2023/04/29 08:53:28;;;;;;;6.93;5.85;;;12.90;99.90;;;;;;5047475;28;20894;-78
2023/04/29 08:55:57;;;;;;;11.38;5.85;;;12.80;99.90;;;;;;5044762;28;20433;-75
2023/04/29 08:58:27;;;;;;;9.07;6.15;;;12.90;99.90;;;;;;5046190;28;20429;-77
2023/04/29 09:00:53;;;;;;;8.68;6.88;;;12.90;99.90;;;;;;5027524;28;20431;-76
2023/04/29 09:03:41;;;;;;;11.85;6.32;;;12.60;99.90;;;;;;5026961;28;20407;-75
2023/04/29 09:06:10;;;;;;;9.95;5.70;;;12.70;99.90;;;;;;5026537;28;20431;-75
2023/04/29 09:08:36;;;;;;;8.60;6.13;;;13.10;99.90;;;;;;5027432;28;20426;-76
2023/04/29 09:11:03;;;;;;;8.35;5.82;;;13.00;99.90;;;;;;5026012;28;20415;-76
2023/04/29 09:13:31;;;;;;;12.20;6.15;;;12.90;99.90;;;;;;5027121;28;20415;-74
2023/04/29 09:15:57;;;;;;;11.00;6.40;;;12.70;99.90;;;;;;5036907;28;20437;-76
2023/04/29 09:18:42;;;;;;;10.30;6.55;;;12.70;99.90;;;;;;5046865;28;20425;-76
2023/04/29 09:21:16;;;;;;;7.63;6.13;;;12.70;99.90;;;;;;5045909;28;20409;-75
2023/04/29 09:23:42;;;;;;;11.43;7.03;;;13.00;99.90;;;;;;5046614;28;20470;-77
2023/04/29 09:26:08;;;;;;;10.57;6.90;;;13.20;99.90;;;;;;5041538;28;20886;-76
2023/04/29 09:28:33;;;;;;;13.47;7.00;;;13.20;99.90;;;;;;5027355;28;20403;-75
2023/04/29 09:31:05;;;;;;;8.60;6.97;;;12.90;99.90;;;;;;5027311;28;20395;-74
2023/04/29 09:33:31;;;;;;;10.82;5.88;;;13.00;99.90;;;;;;5025886;28;20502;-77
2023/04/29 09:35:57;;;;;;;10.30;5.95;;;13.30;99.90;;;;;;5018033;28;20471;-76
2023/04/29 09:38:23;;;;;;;9.15;6.28;;;13.30;99.90;;;;;;5007725;28;20416;-75
2023/04/29 09:40:50;;;;;;;9.37;5.90;;;13.20;99.90;;;;;;5008409;28;20554;-75
2023/04/29 09:43:17;;;;;;;12.88;6.43;;;13.30;99.90;;;;;;5024224;28;20442;-74
2023/04/29 09:45:46;;;;;;;8.93;5.85;;;13.30;99.90;;;;;;5022010;28;20534;-78
2023/04/29 09:48:12;;;;;;;9.13;5.90;;;13.10;99.90;;;;;;5023154;28;20423;-79
2023/04/29 09:50:40;;;;;;;11.32;6.00;;;13.10;99.90;;;;;;5025423;28;20426;-74
2023/04/29 09:53:08;;;;;;;9.90;5.85;;;13.50;99.90;;;;;;5024360;28;20447;-74
2023/04/29 09:55:52;;;;;;;10.45;6.25;;;13.70;99.90;;;;;;5020905;28;20452;-77
2023/04/29 09:58:28;;;;;;;11.00;6.07;;;13.50;99.90;;;;;;5038699;28;21003;-80
2023/04/29 10:00:58;;;;;;;13.02;6.72;;;13.70;99.90;;;;;;5030416;28;20917;-78
2023/04/29 10:03:24;;;;;;;9.68;5.10;;;13.50;99.90;;;;;;5022031;28;20476;-78
2023/04/29 10:05:50;;;;;;;8.60;5.80;;;13.70;99.90;;;;;;5026458;28;20418;-78
2023/04/29 10:08:16;;;;;;;12.77;5.70;;;13.40;99.90;;;;;;5025697;28;20423;-76
2023/04/29 10:10:42;;;;;;;10.47;4.73;;;13.20;99.90;;;;;;5023225;28;20426;-74
2023/04/29 10:13:08;;;;;;;5.82;3.65;;;13.70;99.90;;;;;;5023441;28;20926;-78
2023/04/29 10:15:48;;;;;;;8.93;4.97;;;13.80;99.90;;;;;;5021917;28;20439;-76
2023/04/29 10:18:24;;;;;;;8.25;5.40;;;14.00;99.90;;;;;;5015440;28;20434;-76
2023/04/29 10:20:51;;;;;;;8.73;4.95;;;13.80;99.90;;;;;;5031757;28;20410;-75
2023/04/29 10:23:18;;;;;;;6.68;4.47;;;14.20;99.90;;;;;;5023252;28;20545;-75
2023/04/29 10:25:45;;;;;;;6.50;4.00;;;13.90;99.90;;;;;;5023197;28;20912;-75
2023/04/29 10:28:15;;;;;;;4.55;2.40;;;13.90;99.90;;;;;;5018455;28;20412;-75
2023/04/29 10:30:49;;;;;;;7.07;3.10;;;14.10;99.90;;;;;;5019374;28;20423;-75
2023/04/29 10:33:16;;;;;;;6.65;3.35;;;14.10;99.90;;;;;;5025580;28;20462;-77
2023/04/29 10:35:46;;;;;;;8.40;4.28;;;14.30;99.90;;;;;;5029835;28;20431;-75
2023/04/29 10:38:27;;;;;;;6.33;3.37;;;14.20;99.90;;;;;;5037177;28;20417;-78
2023/04/29 10:40:54;;;;;;;5.32;2.15;;;14.20;99.90;;;;;;5024515;28;20423;-75
2023/04/29 10:43:24;;;;;;;4.22;2.13;;;14.20;99.90;;;;;;5039527;28;20805;-75
2023/04/29 10:46:10;;;;;;;8.38;2.80;;;14.10;99.90;;;;;;5031724;28;20415;-75
2023/04/29 10:48:36;;;;;;;5.88;2.45;;;14.10;99.90;;;;;;5028113;28;20498;-78
2023/04/29 10:51:02;;;;;;;4.97;2.13;;;14.00;99.90;;;;;;5029412;28;20830;-76
2023/04/29 10:53:28;;;;;;;4.57;2.13;;;13.80;99.90;;;;;;5036255;28;20947;-78
2023/04/29 10:55:57;;;;;;;4.82;2.00;;;13.90;99.90;;;;;;5027079;28;20422;-77
2023/04/29 10:58:35;;;;;;;3.25;1.80;;;14.00;99.90;;;;;;5025584;28;20430;-76
2023/04/29 11:01:01;;;;;;;4.43;2.40;;;14.00;99.90;;;;;;5027320;28;20514;-76
2023/04/29 11:03:54;;;;;;;4.07;2.05;;;14.00;99.90;;;;;;5029303;28;20423;-75
2023/04/29 11:06:23;;;;;;;4.32;2.00;;;14.00;99.90;;;;;;5039151;28;20463;-77
2023/04/29 11:09:00;;;;;;;2.88;1.60;;;13.90;99.90;;;;;;5028381;28;20422;-78
2023/04/29 11:11:25;;;;;;;4.53;1.60;;;14.10;99.90;;;;;;5027695;28;20415;-78
2023/04/29 11:13:52;;;;;;;3.03;1.27;;;14.00;99.60;;;;;;5011993;28;20961;-75
2023/04/29 11:16:27;;;;;;;3.57;1.83;;;14.30;99.20;;;;;;5031959;28;20469;-77
2023/04/29 11:19:13;;;;;;;3.60;1.95;;;14.10;99.90;;;;;;5029420;28;22132;-78
2023/04/29 11:21:39;;;;;;;1.92;1.42;;;14.10;99.90;;;;;;5049784;28;20405;-75
2023/04/29 11:24:05;;;;;;;8.70;2.20;;;13.90;99.90;;;;;;5043572;28;20915;-78
2023/04/29 11:26:33;;;;;;;3.33;1.33;;;14.10;99.90;;;;;;5024948;28;20853;-77
2023/04/29 11:28:59;;;;;;;4.85;1.30;;;14.10;99.70;;;;;;5027287;28;20521;-77
2023/04/29 11:31:29;;;;;;;4.75;2.20;;;14.10;97.40;;;;;;5049943;28;20500;-79
2023/04/29 11:33:55;;;;;;;6.47;2.65;;;14.00;99.90;;;;;;5048340;28;20412;-77
2023/04/29 11:36:20;;;;;;;7.45;2.25;;;13.80;99.90;;;;;;5026697;28;20430;-78
2023/04/29 11:38:46;;;;;;;5.30;2.42;;;13.70;99.90;;;;;;5029339;28;20405;-79
2023/04/29 11:41:12;;;;;;;4.43;2.40;;;14.00;99.90;;;;;;5048991;28;20446;-78
2023/04/29 11:43:40;;;;;;;8.30;2.97;;;13.50;99.90;;;;;;5029638;28;20430;-77
2023/04/29 11:46:15;;;;;;;7.10;2.20;;;13.50;99.90;;;;;;5031745;28;20562;-79
2023/04/29 11:48:48;;;;;;;5.07;2.22;;;14.00;99.90;;;;;;5028069;28;20629;-79
2023/04/29 11:51:21;;;;;;;6.65;2.30;;;14.30;99.90;;;;;;5047513;28;20434;-81
2023/04/29 11:53:47;;;;;;;5.45;3.15;;;14.20;99.90;;;;;;5049730;28;20405;-81
2023/04/29 11:56:12;;;;;;;4.70;2.33;;;13.80;99.90;;;;;;5032957;28;20474;-79
2023/04/29 11:58:38;;;;;;;4.47;2.45;;;13.70;99.90;;;;;;5027338;28;20458;-77
2023/04/29 12:01:04;;;;;;;8.18;2.60;;;13.90;99.90;;;;;;5031628;28;20481;-80
2023/04/29 12:03:32;;;;;;;3.22;2.08;;;13.90;99.90;;;;;;5016140;28;20411;-79
2023/04/29 12:05:58;;;;;;;6.38;2.50;;;13.70;99.90;;;;;;5024858;28;20431;-79
2023/04/29 12:08:28;;;;;;;5.80;2.22;;;14.00;99.90;;;;;;5026333;28;20426;-78
2023/04/29 12:10:55;;;;;;;7.38;3.65;;;13.90;99.90;;;;;;5025708;28;20434;-78
2023/04/29 12:13:23;;;;;;;3.92;1.65;;;13.90;99.90;;;;;;5025753;28;20472;-79
2023/04/29 12:15:51;;;;;;;3.85;1.95;;;14.00;99.90;;;;;;5024652;28;20438;-79
2023/04/29 12:18:18;;;;;;;4.85;2.38;;;14.10;99.90;;;;;;5017574;28;20431;-82
2023/04/29 12:20:44;;;;;;;2.88;1.98;;;14.30;99.90;;;;;;5024114;28;21024;-80
2023/04/29 12:23:18;;;;;;;3.38;2.13;;;14.10;99.90;;;;;;5027702;28;20427;-80
2023/04/29 12:25:49;;;;;;;5.72;2.47;;;14.20;99.90;;;;;;5017705;28;20460;-78
2023/04/29 12:28:16;;;;;;;6.38;2.00;;;13.90;99.90;;;;;;5025155;28;20475;-81
2023/04/29 12:30:44;;;;;;;5.15;2.67;;;14.40;99.90;;;;;;5027754;28;20510;-79
2023/04/29 12:33:13;;;;;;;7.95;2.63;;;14.60;99.90;;;;;;5025925;28;20415;-80
2023/04/29 12:35:38;;;;;;;3.97;1.80;;;14.10;99.90;;;;;;5028112;28;20903;-79
2023/04/29 12:38:04;;;;;;;3.33;1.65;;;14.00;99.90;;;;;;5027245;28;20514;-80
2023/04/29 12:40:31;;;;;;;3.10;1.73;;;14.30;99.90;;;;;;5028384;28;20398;-82
2023/04/29 12:42:57;;;;;;;4.40;1.80;;;14.30;99.90;;;;;;5029031;28;20467;-81